Time;durP1;ratioP1;P1;durP2;ratioP2;P2;SDS_P1;SDS_P2;PMS_P1;PMS_P2;Temp;Humidity;BMP_temperature;BMP_pressure;BME280_temperature;BME280_humidity;BME280_pressure;Samples;Min_cycle;Max_cycle;Signal;HPM_P1;HPM_P2
2023/02/19 00:01:30;;;;;;;7.50;6.38;;;12.50;99.90;;;;;;5002520;28;20038;-79
2023/02/19 00:03:58;;;;;;;8.43;6.35;;;12.40;99.90;;;;;;4964856;28;20382;-81
2023/02/19 00:06:25;;;;;;;7.10;6.15;;;12.50;99.90;;;;;;5013455;28;20039;-81
2023/02/19 00:08:51;;;;;;;8.60;6.57;;;12.50;99.90;;;;;;4997812;28;20369;-81
2023/02/19 00:11:19;;;;;;;10.52;7.22;;;12.50;99.90;;;;;;5007212;28;20031;-81
2023/02/19 00:13:47;;;;;;;11.48;7.10;;;12.40;99.90;;;;;;5010443;28;20031;-81
2023/02/19 00:16:16;;;;;;;8.13;6.35;;;12.40;99.90;;;;;;5017384;28;20058;-80
2023/02/19 00:18:42;;;;;;;8.85;6.85;;;12.40;99.90;;;;;;4955838;28;20034;-80
2023/02/19 00:21:08;;;;;;;8.27;7.20;;;12.40;99.90;;;;;;5017652;28;20054;-80
2023/02/19 00:23:34;;;;;;;9.18;6.47;;;12.50;99.90;;;;;;4998362;28;20031;-80
2023/02/19 00:26:08;;;;;;;7.35;6.65;;;12.50;99.90;;;;;;5005641;28;20380;-80
2023/02/19 00:28:34;;;;;;;11.02;7.20;;;12.50;99.90;;;;;;4991063;28;20042;-80
2023/02/19 00:31:19;;;;;;;11.18;7.50;;;12.40;99.90;;;;;;4987743;28;20035;-80
2023/02/19 00:33:46;;;;;;;8.90;6.45;;;12.40;99.90;;;;;;4976663;28;20027;-81
2023/02/19 00:36:12;;;;;;;8.82;7.20;;;12.40;99.90;;;;;;5019834;28;20388;-81
2023/02/19 00:38:39;;;;;;;11.77;6.93;;;12.50;99.90;;;;;;4990053;28;20030;-81
2023/02/19 00:41:17;;;;;;;7.63;6.90;;;12.40;99.90;;;;;;4995316;28;20034;-81
2023/02/19 00:43:54;;;;;;;9.57;6.82;;;12.40;99.90;;;;;;4990475;28;20043;-81
2023/02/19 00:46:24;;;;;;;12.13;6.93;;;12.40;99.90;;;;;;5017119;28;20395;-80
2023/02/19 00:48:53;;;;;;;8.52;6.60;;;12.40;99.90;;;;;;4996990;28;20034;-81
2023/02/19 00:51:21;;;;;;;9.68;6.65;;;12.50;99.90;;;;;;4977819;28;20380;-81
2023/02/19 00:53:47;;;;;;;11.82;7.82;;;12.40;99.90;;;;;;4993257;28;20029;-81
2023/02/19 00:56:13;;;;;;;7.78;7.00;;;12.40;99.90;;;;;;5000977;28;20042;-81
2023/02/19 00:58:39;;;;;;;10.40;7.20;;;12.30;99.90;;;;;;5015273;28;20034;-80
2023/02/19 01:01:05;;;;;;;10.50;7.63;;;12.30;99.90;;;;;;5024194;28;20046;-81
2023/02/19 01:03:32;;;;;;;9.13;7.25;;;12.30;99.90;;;;;;5002030;28;20499;-81
2023/02/19 01:05:59;;;;;;;9.77;6.60;;;12.30;99.90;;;;;;4978941;28;20034;-81
2023/02/19 01:08:25;;;;;;;7.85;7.05;;;12.30;99.90;;;;;;4993370;28;20041;-81
2023/02/19 01:10:51;;;;;;;9.27;7.20;;;12.30;99.90;;;;;;4996561;28;20046;-81
2023/02/19 01:13:17;;;;;;;10.32;7.53;;;12.30;99.90;;;;;;4985663;28;20446;-81
2023/02/19 01:15:43;;;;;;;9.90;6.97;;;12.30;99.90;;;;;;4990124;28;20050;-81
2023/02/19 01:18:10;;;;;;;8.60;6.57;;;12.40;99.90;;;;;;4992980;28;20031;-81
2023/02/19 01:20:40;;;;;;;8.40;6.80;;;12.40;99.90;;;;;;4992986;28;20038;-81
2023/02/19 01:23:06;;;;;;;8.97;6.73;;;12.40;99.90;;;;;;5004658;28;20146;-81
2023/02/19 01:25:32;;;;;;;12.00;6.78;;;12.40;99.90;;;;;;5000582;28;20039;-81
2023/02/19 01:27:58;;;;;;;9.70;7.28;;;12.40;99.90;;;;;;5001067;28;20464;-81
2023/02/19 01:30:25;;;;;;;9.93;6.68;;;12.40;99.90;;;;;;5008183;28;20027;-81
2023/02/19 01:32:51;;;;;;;9.80;7.30;;;12.30;99.90;;;;;;4994982;28;20030;-81
2023/02/19 01:35:17;;;;;;;10.77;7.05;;;12.20;99.90;;;;;;4993363;28;20501;-81
2023/02/19 01:37:43;;;;;;;8.30;6.63;;;12.20;99.90;;;;;;4994977;28;20041;-81
2023/02/19 01:40:09;;;;;;;11.02;6.82;;;12.10;99.90;;;;;;5018921;28;20037;-81
2023/02/19 01:42:35;;;;;;;9.10;6.93;;;12.10;99.90;;;;;;4987836;28;20026;-81
2023/02/19 01:45:31;;;;;;;9.00;7.63;;;12.10;99.90;;;;;;5028757;28;20113;-81
2023/02/19 01:48:06;;;;;;;9.23;7.13;;;12.20;99.90;;;;;;4995390;28;20031;-80
2023/02/19 01:50:36;;;;;;;11.93;7.40;;;12.30;99.90;;;;;;4981082;28;20033;-81
2023/02/19 01:53:04;;;;;;;8.52;7.07;;;12.30;99.90;;;;;;4975486;28;20493;-81
2023/02/19 01:55:31;;;;;;;10.52;7.55;;;12.30;99.90;;;;;;4978036;28;20034;-81
2023/02/19 01:57:57;;;;;;;8.63;7.25;;;12.30;99.90;;;;;;4958509;28;20042;-81
2023/02/19 02:00:23;;;;;;;9.65;7.00;;;12.30;99.90;;;;;;4979252;28;20037;-81
2023/02/19 02:02:51;;;;;;;7.53;6.72;;;12.30;99.90;;;;;;5045558;28;20041;-81
2023/02/19 02:05:25;;;;;;;8.57;6.70;;;12.20;99.90;;;;;;5028531;28;20030;-81
2023/02/19 02:10:36;;;;;;;16.92;6.88;;;12.20;99.90;;;;;;5021978;28;20041;-81
2023/02/19 02:13:02;;;;;;;9.20;6.80;;;12.20;99.90;;;;;;5010406;28;20038;-81
2023/02/19 02:15:38;;;;;;;9.45;7.15;;;12.20;99.90;;;;;;4994292;28;20049;-81
2023/02/19 02:18:27;;;;;;;7.78;6.97;;;12.20;99.90;;;;;;5026206;28;20044;-81
2023/02/19 02:21:06;;;;;;;11.98;7.20;;;12.20;99.90;;;;;;5044477;28;20411;-81
2023/02/19 02:23:56;;;;;;;11.85;7.57;;;12.30;99.90;;;;;;5025420;28;20030;-81
2023/02/19 02:26:40;;;;;;;11.52;6.85;;;12.20;99.90;;;;;;5030583;28;20049;-81
2023/02/19 02:29:18;;;;;;;9.05;6.95;;;12.20;99.90;;;;;;5010570;28;20041;-80
2023/02/19 02:31:49;;;;;;;9.43;7.40;;;12.10;99.90;;;;;;5005345;28;20038;-81
2023/02/19 02:34:23;;;;;;;7.68;6.93;;;12.10;99.90;;;;;;5007139;28;20026;-81
2023/02/19 02:36:51;;;;;;;13.38;7.78;;;12.20;99.90;;;;;;5027936;28;20038;-81
2023/02/19 02:39:19;;;;;;;9.38;7.32;;;12.10;99.90;;;;;;5043641;28;20021;-81
2023/02/19 02:44:39;;;;;;;11.48;7.40;;;12.10;99.90;;;;;;5025686;28;20047;-81
2023/02/19 02:47:05;;;;;;;8.13;6.93;;;12.00;99.90;;;;;;5018570;28;20053;-81
2023/02/19 02:49:31;;;;;;;9.95;7.53;;;12.00;99.90;;;;;;4992604;28;20045;-81
2023/02/19 02:51:57;;;;;;;8.95;7.47;;;12.00;99.90;;;;;;5029110;28;20036;-81
2023/02/19 02:57:13;;;;;;;9.00;7.53;;;11.90;99.90;;;;;;5031107;28;20050;-81
2023/02/19 02:59:39;;;;;;;9.55;7.50;;;11.90;99.90;;;;;;5034166;28;20034;-81
2023/02/19 03:02:21;;;;;;;8.35;7.22;;;11.90;99.90;;;;;;5033427;28;20397;-81
2023/02/19 03:07:53;;;;;;;9.57;7.88;;;12.00;99.90;;;;;;5016443;28;20509;-81
2023/02/19 03:10:24;;;;;;;10.38;7.55;;;12.00;99.90;;;;;;5010318;28;20034;-81
2023/02/19 03:21:09;;;;;;;9.25;6.60;;;11.90;99.90;;;;;;5013674;28;20072;-81
2023/02/19 03:26:22;;;;;;;9.40;6.72;;;11.90;99.90;;;;;;4974997;28;20491;-81
2023/02/19 03:31:34;;;;;;;12.90;7.30;;;11.90;99.90;;;;;;4996293;28;20064;-81
2023/02/19 03:34:04;;;;;;;11.27;7.13;;;11.90;99.90;;;;;;4992598;28;20407;-81
2023/02/19 03:36:36;;;;;;;13.07;7.45;;;11.90;99.90;;;;;;4985412;28;20041;-81
2023/02/19 03:39:04;;;;;;;12.32;7.22;;;11.90;99.90;;;;;;4977216;28;20022;-81
2023/02/19 03:41:34;;;;;;;9.77;7.05;;;11.90;99.90;;;;;;4968945;28;20034;-81
2023/02/19 03:44:09;;;;;;;8.88;6.95;;;11.80;99.90;;;;;;4979068;28;20058;-81
2023/02/19 03:46:47;;;;;;;10.10;7.57;;;11.80;99.90;;;;;;5007906;28;20030;-81
2023/02/19 03:49:28;;;;;;;7.82;6.82;;;11.70;99.90;;;;;;4988398;28;20049;-81
2023/02/19 03:52:02;;;;;;;7.15;6.45;;;11.70;99.90;;;;;;4973155;28;20035;-81
2023/02/19 03:54:28;;;;;;;8.73;6.30;;;11.70;99.90;;;;;;4963663;28;20051;-81
2023/02/19 03:57:10;;;;;;;7.45;6.47;;;11.80;99.90;;;;;;4987836;28;20046;-81
2023/02/19 03:59:36;;;;;;;9.60;6.78;;;11.80;99.90;;;;;;4979534;28;20138;-81
2023/02/19 04:02:07;;;;;;;8.27;6.35;;;11.70;99.90;;;;;;4990037;28;20042;-81
2023/02/19 04:04:38;;;;;;;8.45;6.80;;;11.80;99.90;;;;;;5007179;28;20034;-81
2023/02/19 04:07:04;;;;;;;8.50;6.85;;;11.80;99.90;;;;;;4995339;28;20038;-81
2023/02/19 04:09:35;;;;;;;9.98;7.07;;;11.90;99.90;;;;;;5028806;28;20025;-81
2023/02/19 04:12:01;;;;;;;10.63;7.05;;;11.90;99.90;;;;;;5011456;28;20035;-81
2023/02/19 04:14:57;;;;;;;10.48;6.85;;;11.90;99.90;;;;;;5011104;28;20033;-80
2023/02/19 04:17:27;;;;;;;11.32;6.70;;;11.90;99.90;;;;;;5010659;28;20364;-81
2023/02/19 04:19:53;;;;;;;9.38;6.80;;;11.90;99.90;;;;;;5028799;28;20026;-81
2023/02/19 04:22:20;;;;;;;7.85;6.97;;;11.90;99.90;;;;;;5014532;28;20060;-81
2023/02/19 04:24:51;;;;;;;12.57;6.93;;;12.00;99.90;;;;;;5028890;28;20033;-81
2023/02/19 04:27:17;;;;;;;11.38;6.63;;;12.00;99.90;;;;;;5038075;28;20518;-81
2023/02/19 04:29:43;;;;;;;7.70;6.40;;;12.00;99.90;;;;;;5037177;28;20484;-81
2023/02/19 04:32:10;;;;;;;9.88;6.70;;;12.00;99.90;;;;;;5027335;28;20034;-81
2023/02/19 04:34:36;;;;;;;12.43;7.25;;;12.10;99.90;;;;;;4995891;28;20030;-81
2023/02/19 04:37:02;;;;;;;8.07;6.53;;;12.10;99.90;;;;;;5046759;28;20049;-81
2023/02/19 04:39:28;;;;;;;8.55;6.88;;;12.10;99.90;;;;;;5009888;28;20045;-81
2023/02/19 04:41:54;;;;;;;6.93;6.28;;;12.00;99.90;;;;;;5012881;28;20471;-81
2023/02/19 04:44:20;;;;;;;7.82;6.40;;;12.00;99.90;;;;;;5013639;28;20033;-81
2023/02/19 04:46:46;;;;;;;10.75;6.53;;;12.00;99.90;;;;;;5044103;28;20373;-81
2023/02/19 04:49:12;;;;;;;9.45;6.97;;;12.00;99.90;;;;;;5018209;28;20041;-81
2023/02/19 04:51:39;;;;;;;10.40;7.10;;;12.00;99.90;;;;;;5027388;28;20033;-81
2023/02/19 04:54:05;;;;;;;11.23;7.07;;;11.90;99.90;;;;;;5018384;28;20038;-81
2023/02/19 04:56:31;;;;;;;8.40;7.60;;;11.90;99.90;;;;;;5010410;28;20041;-81
2023/02/19 04:58:57;;;;;;;9.60;7.53;;;12.00;99.90;;;;;;5010968;28;20034;-80
2023/02/19 05:01:23;;;;;;;8.15;6.53;;;12.00;99.90;;;;;;4988571;28;20037;-80
2023/02/19 05:03:50;;;;;;;8.75;7.10;;;12.00;99.90;;;;;;5038333;28;20030;-80
2023/02/19 05:06:16;;;;;;;10.13;7.30;;;12.00;99.90;;;;;;5011962;28;20037;-80
2023/02/19 05:08:42;;;;;;;10.50;7.38;;;12.00;99.90;;;;;;5013058;28;20382;-80
2023/02/19 05:11:09;;;;;;;12.05;8.25;;;12.00;99.90;;;;;;5022974;28;20030;-78
2023/02/19 05:13:35;;;;;;;9.82;8.20;;;12.00;99.90;;;;;;5018607;28;20035;-79
2023/02/19 05:16:06;;;;;;;11.18;9.63;;;12.00;99.90;;;;;;5029755;28;20034;-79
2023/02/19 05:18:33;;;;;;;295.48;30.75;;;12.00;99.90;;;;;;5004815;28;20033;-79
2023/02/19 05:20:59;;;;;;;10.40;9.40;;;12.00;99.90;;;;;;5016851;28;20042;-79
2023/02/19 05:23:25;;;;;;;10.50;9.15;;;12.00;99.90;;;;;;5029372;28;20034;-79
2023/02/19 05:25:52;;;;;;;18.90;10.15;;;12.00;99.90;;;;;;4976831;28;20514;-79
2023/02/19 05:28:18;;;;;;;9.98;9.18;;;12.00;99.90;;;;;;5014257;28;20593;-80
2023/02/19 05:30:48;;;;;;;10.43;9.45;;;11.90;99.90;;;;;;5008195;28;20034;-80
2023/02/19 05:33:14;;;;;;;10.73;9.65;;;11.80;99.90;;;;;;5033066;28;20387;-79
2023/02/19 05:35:44;;;;;;;10.30;8.40;;;11.80;99.90;;;;;;5040417;28;20498;-79
2023/02/19 05:38:10;;;;;;;53.58;12.32;;;11.80;99.90;;;;;;5046351;28;20030;-79
2023/02/19 05:40:37;;;;;;;10.65;9.52;;;11.80;99.90;;;;;;5030898;28;20030;-78
2023/02/19 05:43:03;;;;;;;10.27;9.38;;;11.90;99.90;;;;;;5042092;28;20030;-80
2023/02/19 05:45:29;;;;;;;70.32;11.85;;;11.90;99.90;;;;;;5021745;28;20050;-79
2023/02/19 05:47:55;;;;;;;10.30;8.93;;;11.80;99.90;;;;;;5015590;28;20037;-79
2023/02/19 05:50:21;;;;;;;10.15;9.25;;;11.90;99.90;;;;;;5012490;28;20048;-80
2023/02/19 05:52:47;;;;;;;11.43;10.50;;;11.90;99.90;;;;;;5013236;28;20387;-79
2023/02/19 05:55:13;;;;;;;10.02;8.98;;;11.90;99.90;;;;;;5013505;28;20042;-78
2023/02/19 05:57:44;;;;;;;10.30;9.50;;;11.90;99.90;;;;;;4979144;28;20073;-79
2023/02/19 06:00:12;;;;;;;12.48;10.55;;;11.90;99.90;;;;;;5030836;28;20497;-79
2023/02/19 06:02:38;;;;;;;10.98;9.77;;;11.90;99.90;;;;;;5043866;28;20415;-79
2023/02/19 06:05:04;;;;;;;9.95;9.15;;;11.90;99.90;;;;;;5043969;28;20033;-79
2023/02/19 06:07:31;;;;;;;10.00;9.10;;;11.70;99.90;;;;;;5009443;28;20392;-79
2023/02/19 06:09:57;;;;;;;932.13;59.70;;;11.70;99.90;;;;;;5014080;28;20042;-80
2023/02/19 06:12:23;;;;;;;9.98;8.98;;;11.70;99.90;;;;;;5025950;28;20038;-81
2023/02/19 06:14:49;;;;;;;9.70;8.85;;;11.70;99.90;;;;;;5011107;28;20613;-81
2023/02/19 06:17:15;;;;;;;9.88;8.85;;;11.70;99.90;;;;;;5019816;28;20037;-80
2023/02/19 06:19:41;;;;;;;9.63;8.73;;;11.80;99.90;;;;;;5031118;28;20048;-79
2023/02/19 06:22:08;;;;;;;8.63;8.02;;;11.90;99.90;;;;;;5045077;28;20045;-80
2023/02/19 06:24:36;;;;;;;8.82;8.05;;;11.90;99.90;;;;;;5011056;28;20034;-80
2023/02/19 06:27:06;;;;;;;10.07;9.00;;;11.90;99.90;;;;;;5025015;28;20510;-80
2023/02/19 06:29:32;;;;;;;107.32;14.88;;;11.90;99.90;;;;;;5042734;28;20026;-78
2023/02/19 06:31:59;;;;;;;9.05;8.23;;;11.90;99.90;;;;;;5029267;28;20058;-78
2023/02/19 06:34:25;;;;;;;16.30;9.43;;;11.90;99.90;;;;;;5030985;28;20029;-79
2023/02/19 06:36:51;;;;;;;223.60;21.38;;;11.90;99.90;;;;;;5044575;28;20048;-79
2023/02/19 06:39:17;;;;;;;10.23;9.38;;;11.90;99.90;;;;;;5024532;28;20025;-79
2023/02/19 06:41:43;;;;;;;9.98;9.10;;;11.90;99.90;;;;;;5039349;28;20379;-80
2023/02/19 06:44:09;;;;;;;9.13;8.35;;;11.90;99.90;;;;;;5028460;28;20034;-80
2023/02/19 06:46:35;;;;;;;9.68;8.63;;;11.90;99.90;;;;;;5012696;28;20491;-80
2023/02/19 06:49:03;;;;;;;86.93;13.57;;;11.90;99.90;;;;;;4994088;28;20056;-79
2023/02/19 06:51:31;;;;;;;11.55;9.43;;;11.80;99.90;;;;;;5045026;28;20041;-79
2023/02/19 06:53:58;;;;;;;9.77;8.93;;;11.90;99.90;;;;;;5041727;28;20038;-79
2023/02/19 06:56:24;;;;;;;9.25;8.55;;;11.90;99.90;;;;;;5009440;28;20054;-80
2023/02/19 06:58:54;;;;;;;9.95;9.05;;;11.80;99.90;;;;;;5011808;28;20041;-80
2023/02/19 07:01:20;;;;;;;9.57;8.23;;;11.70;99.90;;;;;;4994765;28;20053;-79
2023/02/19 07:03:47;;;;;;;8.68;7.97;;;11.60;99.90;;;;;;5024835;28;20065;-80
2023/02/19 07:06:13;;;;;;;7.75;7.15;;;11.60;99.90;;;;;;5027841;28;20071;-78
2023/02/19 07:08:39;;;;;;;31.38;10.02;;;11.60;99.90;;;;;;5016192;28;20052;-80
2023/02/19 07:11:05;;;;;;;9.07;8.27;;;11.70;99.90;;;;;;5007822;28;20035;-80
2023/02/19 07:13:31;;;;;;;8.25;7.55;;;11.80;99.90;;;;;;5024753;28;20034;-78
2023/02/19 07:15:58;;;;;;;8.18;7.53;;;11.80;99.90;;;;;;5009726;28;20045;-81
2023/02/19 07:18:24;;;;;;;9.63;7.70;;;11.80;99.90;;;;;;5012115;28;20025;-79
2023/02/19 07:20:51;;;;;;;8.10;7.40;;;11.90;99.90;;;;;;5025080;28;20046;-79
2023/02/19 07:23:17;;;;;;;8.77;7.97;;;11.70;99.90;;;;;;5011307;28;20410;-79
2023/02/19 07:25:43;;;;;;;8.77;7.88;;;11.70;99.90;;;;;;5030949;28;20030;-78
2023/02/19 07:28:09;;;;;;;7.93;7.13;;;11.60;99.90;;;;;;5002230;28;20380;-80
2023/02/19 07:30:35;;;;;;;7.18;6.57;;;11.70;99.90;;;;;;4992265;28;20041;-79
2023/02/19 07:33:01;;;;;;;6.20;5.53;;;11.70;99.90;;;;;;5024659;28;20380;-79
2023/02/19 07:35:27;;;;;;;10.27;4.82;;;11.70;99.90;;;;;;5010253;28;20045;-79
2023/02/19 07:37:53;;;;;;;4.93;4.50;;;11.70;99.90;;;;;;5008587;28;20050;-78
2023/02/19 07:40:19;;;;;;;6.20;4.63;;;11.60;99.90;;;;;;5002328;28;20022;-79
2023/02/19 07:42:45;;;;;;;4.80;4.50;;;11.60;99.90;;;;;;5039045;28;20034;-79
2023/02/19 07:45:12;;;;;;;5.22;4.78;;;11.60;99.90;;;;;;5014813;28;20037;-79
2023/02/19 07:47:38;;;;;;;6.30;5.32;;;11.40;99.90;;;;;;5011705;28;20487;-81
2023/02/19 07:50:04;;;;;;;5.00;4.55;;;11.50;99.90;;;;;;5012661;28;20034;-79
2023/02/19 07:52:32;;;;;;;5.45;5.00;;;11.50;99.90;;;;;;5009282;28;20045;-82
2023/02/19 07:54:58;;;;;;;7.78;5.60;;;11.50;99.90;;;;;;5010061;28;20383;-81
2023/02/19 07:57:24;;;;;;;5.20;4.80;;;11.50;99.90;;;;;;5011537;28;20045;-84
2023/02/19 07:59:50;;;;;;;6.55;5.47;;;11.50;99.90;;;;;;5032017;28;20399;-79
2023/02/19 08:05:02;;;;;;;5.05;4.30;;;11.60;99.90;;;;;;5015906;28;20045;-84
2023/02/19 08:07:32;;;;;;;5.82;5.40;;;11.50;99.90;;;;;;5038059;28;20037;-82
2023/02/19 08:15:41;;;;;;;4.85;4.45;;;11.70;99.90;;;;;;4967372;28;20053;-82
2023/02/19 08:18:08;;;;;;;5.72;4.80;;;11.80;99.90;;;;;;4995063;28;20073;-80
2023/02/19 08:20:34;;;;;;;5.38;4.28;;;11.90;99.90;;;;;;4989104;28;20043;-82
2023/02/19 08:23:00;;;;;;;4.93;4.53;;;12.10;99.90;;;;;;4988825;28;20447;-79
2023/02/19 08:25:27;;;;;;;7.75;4.43;;;12.20;99.90;;;;;;4988781;28;20045;-83
2023/02/19 08:27:53;;;;;;;6.63;4.40;;;12.30;99.90;;;;;;4983272;28;20042;-83
2023/02/19 08:30:19;;;;;;;4.78;4.25;;;12.30;99.90;;;;;;4994307;28;20049;-84
2023/02/19 08:32:45;;;;;;;6.15;5.07;;;12.40;99.90;;;;;;4967070;28;20038;-80
2023/02/19 08:35:11;;;;;;;6.43;5.60;;;12.40;99.90;;;;;;4986825;28;20030;-79
2023/02/19 08:37:37;;;;;;;6.18;5.18;;;12.40;99.90;;;;;;4979351;28;20062;-82
2023/02/19 08:40:04;;;;;;;6.15;5.65;;;12.30;99.90;;;;;;4986635;28;20106;-82
2023/02/19 08:42:30;;;;;;;6.32;5.72;;;12.50;99.90;;;;;;4988554;28;20046;-81
2023/02/19 08:44:56;;;;;;;6.45;5.97;;;12.50;99.90;;;;;;4978326;28;20043;-87
2023/02/19 08:47:22;;;;;;;6.68;6.07;;;12.50;99.90;;;;;;4970672;28;20034;-83
2023/02/19 08:49:48;;;;;;;6.35;5.93;;;12.50;99.90;;;;;;4975846;28;20049;-83
2023/02/19 08:52:14;;;;;;;8.07;6.47;;;12.50;99.90;;;;;;4968927;28;20042;-84
2023/02/19 08:54:40;;;;;;;7.35;6.72;;;12.60;99.90;;;;;;5018382;28;20041;-81
2023/02/19 08:57:06;;;;;;;7.25;6.55;;;12.60;99.90;;;;;;5005659;28;20054;-83
2023/02/19 08:59:33;;;;;;;7.00;6.28;;;12.70;99.90;;;;;;4993239;28;20038;-81
2023/02/19 09:01:59;;;;;;;7.07;5.72;;;12.60;99.90;;;;;;5002891;28;20030;-85
2023/02/19 09:04:25;;;;;;;5.03;4.53;;;12.50;99.90;;;;;;5001329;28;20034;-86
2023/02/19 09:06:51;;;;;;;6.00;5.30;;;12.50;99.90;;;;;;4989135;28;20402;-81
2023/02/19 09:09:17;;;;;;;6.20;5.60;;;12.50;99.90;;;;;;5007617;28;20030;-85
2023/02/19 09:11:43;;;;;;;5.97;4.85;;;12.50;99.90;;;;;;5006724;28;20383;-84
2023/02/19 09:14:09;;;;;;;5.90;4.47;;;12.40;99.90;;;;;;5010364;28;20030;-85
2023/02/19 09:16:35;;;;;;;8.38;4.95;;;12.30;99.90;;;;;;5017870;28;20492;-82
2023/02/19 09:19:02;;;;;;;5.22;4.53;;;12.10;99.90;;;;;;5025320;28;20471;-79
2023/02/19 09:21:28;;;;;;;5.25;4.40;;;12.00;99.90;;;;;;5017887;28;20045;-83
2023/02/19 09:23:54;;;;;;;5.32;4.88;;;11.90;99.90;;;;;;4994218;28;20026;-79
2023/02/19 09:26:21;;;;;;;5.55;4.35;;;11.80;99.90;;;;;;4998466;28;20034;-79
2023/02/19 09:28:47;;;;;;;4.38;3.20;;;11.60;99.90;;;;;;5023769;28;20046;-83
2023/02/19 09:31:14;;;;;;;6.05;3.50;;;11.40;99.90;;;;;;5033893;28;20026;-81
2023/02/19 09:33:44;;;;;;;7.03;3.83;;;11.40;99.90;;;;;;5023581;28;20052;-87
2023/02/19 09:36:10;;;;;;;8.13;5.40;;;11.40;99.90;;;;;;4969797;28;20042;-82
2023/02/19 09:38:37;;;;;;;11.73;6.63;;;11.40;99.90;;;;;;5009607;28;20041;-84
2023/02/19 09:41:14;;;;;;;15.38;8.93;;;11.40;99.90;;;;;;5017171;28;20510;-85
2023/02/19 09:43:40;;;;;;;10.05;6.65;;;11.50;99.90;;;;;;5022703;28;20057;-83
2023/02/19 09:46:15;;;;;;;10.25;6.40;;;11.50;99.90;;;;;;5014898;28;20034;-82
2023/02/19 09:48:41;;;;;;;5.97;4.40;;;11.50;99.90;;;;;;4994289;28;20403;-79
2023/02/19 09:51:07;;;;;;;8.60;5.85;;;11.50;99.90;;;;;;5015376;28;20041;-79
2023/02/19 09:53:39;;;;;;;13.63;9.55;;;11.50;99.90;;;;;;5036006;28;20495;-80
2023/02/19 09:56:06;;;;;;;8.48;5.22;;;11.50;99.90;;;;;;5002284;28;20029;-79
2023/02/19 09:58:48;;;;;;;13.32;7.97;;;11.50;99.90;;;;;;5022282;28;20049;-79
2023/02/19 10:01:15;;;;;;;5.50;3.95;;;11.50;99.90;;;;;;5017009;28;20423;-81
2023/02/19 10:03:43;;;;;;;7.35;4.55;;;11.70;99.90;;;;;;5013893;28;20033;-78
2023/02/19 10:06:22;;;;;;;4.53;3.55;;;11.70;99.90;;;;;;5035381;28;20032;-79
2023/02/19 10:09:17;;;;;;;5.68;4.20;;;11.70;99.90;;;;;;5001083;28;20525;-78
2023/02/19 10:11:43;;;;;;;5.47;3.67;;;11.80;99.90;;;;;;5005302;28;20049;-79
2023/02/19 10:14:16;;;;;;;3.92;3.50;;;11.70;99.90;;;;;;4995953;28;20526;-78
2023/02/19 10:16:43;;;;;;;4.35;3.72;;;11.70;99.90;;;;;;5001118;28;20053;-79
2023/02/19 10:19:10;;;;;;;4.10;3.70;;;11.70;99.90;;;;;;5033841;28;20045;-77
2023/02/19 10:21:36;;;;;;;4.50;4.10;;;11.70;99.90;;;;;;5016774;28;20049;-79
2023/02/19 10:24:03;;;;;;;7.32;3.90;;;11.80;99.90;;;;;;5005142;28;20494;-78
2023/02/19 10:26:34;;;;;;;5.50;4.25;;;11.90;99.90;;;;;;5022494;28;20714;-78
2023/02/19 10:29:04;;;;;;;5.13;4.25;;;12.10;99.90;;;;;;5033586;28;20060;-78
2023/02/19 10:31:31;;;;;;;5.15;4.40;;;12.10;99.90;;;;;;5002912;28;20464;-81
2023/02/19 10:33:59;;;;;;;7.40;4.82;;;12.20;99.90;;;;;;5022213;28;20033;-81
2023/02/19 10:36:32;;;;;;;4.85;4.35;;;12.10;99.90;;;;;;5005264;28;20038;-79
2023/02/19 10:39:00;;;;;;;5.30;4.70;;;12.20;99.90;;;;;;4991952;28;20030;-81
2023/02/19 10:41:26;;;;;;;6.32;5.70;;;12.20;99.90;;;;;;5039276;28;20038;-81
2023/02/19 10:44:21;;;;;;;6.55;5.40;;;12.20;99.90;;;;;;5035780;28;20038;-89
2023/02/19 10:46:48;;;;;;;4.20;3.40;;;12.10;99.90;;;;;;5006581;28;20029;-78
2023/02/19 10:49:29;;;;;;;12.00;9.35;;;12.00;99.90;;;;;;5005144;28;20049;-80
2023/02/19 10:51:56;;;;;;;23.67;17.42;;;11.90;99.90;;;;;;5035611;28;20042;-84
2023/02/19 10:54:29;;;;;;;4.95;4.30;;;11.90;99.90;;;;;;5020046;28;20038;-85
2023/02/19 10:57:13;;;;;;;5.72;4.90;;;11.90;99.90;;;;;;5018143;28;20049;-84
2023/02/19 10:59:51;;;;;;;4.30;3.90;;;11.80;99.90;;;;;;5033751;28;20040;-78
2023/02/19 11:02:18;;;;;;;6.32;5.38;;;11.90;99.90;;;;;;5003492;28;20514;-78
2023/02/19 11:05:16;;;;;;;5.80;5.28;;;12.10;99.90;;;;;;5017432;28;20537;-83
2023/02/19 11:07:44;;;;;;;5.18;4.47;;;12.10;99.90;;;;;;5006041;28;20513;-78
2023/02/19 11:10:25;;;;;;;6.82;4.80;;;12.20;99.90;;;;;;5018617;28;20026;-82
2023/02/19 11:12:52;;;;;;;6.13;4.93;;;12.10;99.90;;;;;;5016346;28;20038;-81
2023/02/19 11:15:37;;;;;;;7.15;5.30;;;12.10;99.90;;;;;;4996563;28;20041;-81
2023/02/19 11:18:03;;;;;;;5.68;5.28;;;12.30;99.90;;;;;;5013545;28;20045;-82
2023/02/19 11:20:30;;;;;;;6.38;5.70;;;12.40;99.90;;;;;;5009888;28;20064;-82
2023/02/19 11:22:59;;;;;;;5.95;5.35;;;12.50;99.90;;;;;;5014682;28;20038;-81
2023/02/19 11:25:25;;;;;;;7.85;6.03;;;12.30;99.90;;;;;;5010196;28;20545;-85
2023/02/19 11:28:18;;;;;;;5.05;4.63;;;12.40;99.90;;;;;;5035071;28;20033;-82
2023/02/19 11:30:45;;;;;;;5.60;5.20;;;12.60;99.90;;;;;;5034689;28;20042;-85
2023/02/19 11:33:23;;;;;;;7.38;5.10;;;12.70;99.90;;;;;;4999020;28;20052;-83
2023/02/19 11:35:51;;;;;;;7.50;6.57;;;12.90;99.90;;;;;;5008568;28;20070;-84
2023/02/19 11:38:18;;;;;;;6.72;6.13;;;12.90;99.90;;;;;;5011697;28;20042;-83
2023/02/19 11:40:49;;;;;;;5.68;5.28;;;13.00;99.90;;;;;;5031858;28;20039;-83
2023/02/19 11:43:24;;;;;;;5.55;5.15;;;13.00;99.90;;;;;;5032920;28;20023;-88
2023/02/19 11:46:01;;;;;;;4.72;4.30;;;13.10;99.90;;;;;;5007026;28;20034;-82
2023/02/19 11:48:58;;;;;;;6.05;5.53;;;13.00;99.90;;;;;;5027664;28;20054;-84
2023/02/19 11:51:36;;;;;;;5.93;5.32;;;13.10;99.90;;;;;;4990913;28;20030;-78
2023/02/19 11:54:30;;;;;;;6.05;5.40;;;13.00;99.90;;;;;;5007982;28;20065;-84
2023/02/19 11:57:27;;;;;;;6.25;5.75;;;12.80;99.90;;;;;;5018155;28;20410;-84
2023/02/19 12:00:30;;;;;;;6.47;5.90;;;12.80;99.90;;;;;;4998145;28;20125;-88
2023/02/19 12:03:31;;;;;;;5.65;5.10;;;12.90;99.90;;;;;;4972926;28;20031;-87
2023/02/19 12:06:18;;;;;;;38.22;19.98;;;13.00;99.90;;;;;;4983563;28;20019;-83
2023/02/19 12:09:13;;;;;;;13.77;10.60;;;13.00;99.90;;;;;;4986341;28;20034;-83
2023/02/19 12:11:52;;;;;;;6.38;5.88;;;13.00;99.90;;;;;;4976607;28;20350;-85
2023/02/19 12:14:59;;;;;;;7.95;6.45;;;13.20;99.90;;;;;;4974386;28;20384;-82
2023/02/19 12:17:44;;;;;;;6.10;5.60;;;13.30;99.90;;;;;;4961328;28;20038;-86
2023/02/19 12:20:19;;;;;;;10.55;9.45;;;13.40;99.90;;;;;;4966720;28;20030;-83
2023/02/19 12:23:03;;;;;;;7.65;5.10;;;13.30;99.90;;;;;;4967050;28;22063;-84
2023/02/19 12:25:53;;;;;;;9.13;8.23;;;13.10;99.90;;;;;;4965772;28;20074;-86
2023/02/19 12:28:51;;;;;;;6.80;6.30;;;13.10;99.90;;;;;;4968996;28;20608;-83
2023/02/19 12:31:33;;;;;;;9.30;7.85;;;13.20;99.90;;;;;;4962878;28;20034;-86
2023/02/19 12:34:05;;;;;;;27.17;21.00;;;13.10;99.90;;;;;;4971317;28;20038;-82
2023/02/19 12:37:12;;;;;;;18.80;15.43;;;13.20;99.90;;;;;;4964650;28;20031;-83
2023/02/19 12:39:41;;;;;;;8.32;7.47;;;13.20;99.90;;;;;;4960359;28;20043;-83
2023/02/19 12:42:28;;;;;;;7.97;7.25;;;13.20;99.90;;;;;;4965682;28;20506;-83
2023/02/19 12:44:59;;;;;;;7.05;6.45;;;13.10;99.90;;;;;;4970394;28;20068;-83
2023/02/19 12:47:28;;;;;;;11.88;8.52;;;13.10;99.90;;;;;;4952188;28;20046;-78
2023/02/19 12:50:06;;;;;;;6.85;6.13;;;13.20;99.90;;;;;;4949750;28;20411;-79
2023/02/19 12:52:35;;;;;;;6.22;5.63;;;13.20;99.90;;;;;;4955052;28;20046;-81
2023/02/19 12:55:22;;;;;;;12.20;6.95;;;13.30;99.90;;;;;;4978768;28;20053;-81
2023/02/19 12:57:49;;;;;;;4.78;4.32;;;13.30;99.90;;;;;;4992705;28;20056;-80
2023/02/19 13:00:22;;;;;;;4.72;4.20;;;13.40;99.90;;;;;;4984285;28;20031;-76
2023/02/19 13:02:56;;;;;;;4.22;3.60;;;13.50;99.90;;;;;;4985620;28;20030;-78
2023/02/19 13:05:51;;;;;;;5.88;3.20;;;13.70;99.90;;;;;;4979553;28;20034;-78
2023/02/19 13:08:34;;;;;;;5.00;4.32;;;13.80;99.90;;;;;;4974150;28;20061;-80
2023/02/19 13:11:31;;;;;;;5.10;4.60;;;13.70;99.90;;;;;;4987400;28;20031;-83
2023/02/19 13:14:10;;;;;;;5.15;4.70;;;13.80;99.90;;;;;;5001955;28;20373;-77
2023/02/19 13:16:37;;;;;;;4.10;3.70;;;13.80;99.90;;;;;;4991540;28;20057;-78
2023/02/19 13:19:03;;;;;;;4.07;3.78;;;13.40;99.90;;;;;;4986305;28;20373;-78
2023/02/19 13:24:24;;;;;;;4.28;3.88;;;13.10;99.90;;;;;;5002065;28;20403;-83
2023/02/19 13:27:00;;;;;;;6.50;5.70;;;13.10;99.90;;;;;;4992826;28;20406;-78
2023/02/19 13:29:51;;;;;;;4.55;4.10;;;13.20;99.90;;;;;;5008861;28;20030;-78
2023/02/19 13:32:39;;;;;;;4.22;3.92;;;13.20;99.90;;;;;;5005295;28;20038;-78
2023/02/19 13:35:23;;;;;;;5.25;3.67;;;13.00;99.90;;;;;;4994532;28;20027;-78
2023/02/19 13:37:50;;;;;;;4.72;4.00;;;13.10;99.90;;;;;;5024349;28;20041;-77